KFFA/FFA METAR and TAF weather

Enter ICAO airport designator
Station Type Date Time Source
KFFA METAR 2020/06/01 16:15 UTC NOAA

KFFA 011615Z AUTO 04009G18KT 020V090 10SM CLR 17/08 A3030 RMK AO2 T01720079


Station Type Date Time Source
KFFA Decoded METAR 2020/06/01 16:15 UTC NOAA

Kill Devil Hills, First Flight Airport, NC, United States (KFFA) 36-01N 075-40W
Jun 01, 2020 - 12:15 PM EDT / 2020.06.01 1615 UTC
Wind: from the NE (040 degrees) at 10 MPH (9 KT) gusting to 21 MPH (18 KT) (direction variable):0
Visibility: 10 mile(s):0
Sky conditions: clear
Temperature: 63.0 F (17.2 C)
Dew Point: 46.2 F (7.9 C)
Relative Humidity: 54%
Pressure (altimeter): 30.3 in. Hg (1026 hPa)
ob: KFFA 011615Z AUTO 04009G18KT 020V090 10SM CLR 17/08 A3030 RMK AO2 T01720079
cycle: 16

Station Type Date Time Source
KFFA TAF UTC NOAA

Error!

Example: see airport list